Lakenheath, United Kingdom
Current Conditions -  °F | °C
As of 3:00 PM on Thursday 23 Oct 2014 (Local Time) from EGUL Reporting Station
Broken Clouds Broken Clouds  
Wind Chill: 61°   Ceiling: 2900
Heat Index: 61°   Visibility: 6mi
Dew Point: 57°   Wind: 13mph
Humidity: 88%   Direction: 210°SSW
Pressure: 30.02"   Gusts: 18mph
Location:  52.42°N, 0.52°E
Report Text: EGUL 231400Z AUTO 21011G16KT 9999 BKN029 BKN070 16/14 A3002 RMK AO2 CIG 029V070 BKN029 V SCT CIG 028 RWY06
Loading
Personal Weather Stations






























Interactive Weather Map
Tropical Storm Tracking
New forecast layout! Learn more

10-Day Weather Forecast

Advertisements
Track Severe Weather on mobile